LiveATC.Net - Listen to live air traffic control over the Internet!


ICAO: KGRK  IATA: GRK   Airport: Robert Gray Army Airfield
City: Fort Hood (Killeen)   State/Province: Texas
Country: United States   Continent: North America
KGRK METAR Weather: KGRK 140858Z AUTO 11003KT 10SM BKN027 OVC036 04/00 A3012 RMK AO2 CIG 027V036 BKN V SCT SLP205 50003 $
KGRK Flight Activity (FlightAware)
KGRK Airport Info   (iFlightPlanner)
KGRK VFR Sectional Chart   (iFlightPlanner) 
KGRK IFR Low Chart   (iFlightPlanner) 

KGRK Twr/App
Feed Status: UP   Listeners: 0
Listen in your browser - HTML5 player (in browser, HTML5)
Click here to listen with your own player (launches your MP3 player)
Archive Access: KGRK Twr/App
FacilityFrequency
Gray Tower120.750

NOTICE

Unauthorized use prohibited. See LiveATC.net Terms of Service


Airport/ARTCC Code
Frequency Search
(e.g., 124.400, 128.75)
Site-wide search
 


Browse LiveATC Feeds
Top 50 LiveATC Feeds
LiveATC Feed Map
Bad Weather Areas

LiveATC FAQ
Offer LiveATC feed
Contact LiveATC.net
Press Inquiries

LiveATC on iPhone
LiveATC on Android

Windows Phone
Windows 8/10

LiveATC Mobile
(Mobile browser)

ATC Audio Archives
Interesting Recordings

LiveATC Forums


Home Page
About LiveATC.net
Make a Donation
Terms of Use
Privacy Policy

Canadian Air Freqs

AIRMETs/SIGMETs

FAA Airport Status
Nat'l Airspace Status
Arrival Demand Charts


Server Software By:
Icecast.org
Liquidsoap